createdAt,value
2017-01-07T00:00:02.828Z,1035.92
2017-01-07T00:01:11.805Z,1035.91
2017-01-07T00:02:20.819Z,1035.87
2017-01-07T00:03:30.277Z,1035.86
2017-01-07T00:04:39.257Z,1035.81
2017-01-07T00:05:48.463Z,1035.81
2017-01-07T00:06:57.685Z,1035.83
2017-01-07T00:08:06.684Z,1035.84
2017-01-07T00:09:15.648Z,1035.83
2017-01-07T00:10:24.711Z,1035.83
2017-01-07T00:11:33.696Z,1035.85
2017-01-07T00:12:42.858Z,1035.86
2017-01-07T00:13:51.860Z,1035.84
2017-01-07T00:15:00.846Z,1035.8
2017-01-07T00:16:09.901Z,1035.78
2017-01-07T00:17:18.878Z,1035.75
2017-01-07T00:18:27.868Z,1035.75
2017-01-07T00:19:36.849Z,1035.74
2017-01-07T00:20:45.842Z,1035.71
2017-01-07T00:21:54.815Z,1035.67
2017-01-07T00:23:03.791Z,1035.68
2017-01-07T00:24:12.776Z,1035.64
2017-01-07T00:25:21.818Z,1035.64
2017-01-07T00:26:30.799Z,1035.6
2017-01-07T00:27:39.767Z,1035.61
2017-01-07T00:28:48.777Z,1035.54
2017-01-07T00:29:57.765Z,1035.55
2017-01-07T00:31:06.724Z,1035.46
2017-01-07T00:32:15.704Z,1035.46
2017-01-07T00:33:24.676Z,1035.45
2017-01-07T00:34:33.649Z,1035.47
2017-01-07T00:35:42.628Z,1035.42
2017-01-07T00:36:51.611Z,1035.36
2017-01-07T00:38:00.580Z,1035.3
2017-01-07T00:39:09.555Z,1035.25
2017-01-07T00:40:18.520Z,1035.32
2017-01-07T00:41:27.500Z,1035.36
2017-01-07T00:42:36.486Z,1035.36
2017-01-07T00:43:45.452Z,1035.32
2017-01-07T00:44:54.425Z,1035.32
2017-01-07T00:46:03.409Z,1035.3
2017-01-07T00:47:12.388Z,1035.25
2017-01-07T00:48:21.372Z,1035.23
2017-01-07T00:49:30.354Z,1035.18
2017-01-07T00:50:39.327Z,1035.15
2017-01-07T00:51:48.323Z,1035.16
2017-01-07T00:52:57.312Z,1035.15
2017-01-07T00:54:06.292Z,1035.13
2017-01-07T00:55:15.281Z,1035.11
2017-01-07T00:56:24.247Z,1035.06
2017-01-07T00:57:33.222Z,1035.03
2017-01-07T00:58:42.195Z,1035.01
2017-01-07T00:59:51.171Z,1035.04
2017-01-07T01:01:00.154Z,1035.02
2017-01-07T01:02:09.124Z,1035.03
2017-01-07T01:03:18.154Z,1035.03
2017-01-07T01:04:27.143Z,1035.07
2017-01-07T01:05:36.182Z,1035.07
2017-01-07T01:06:45.174Z,1035.05
2017-01-07T01:07:54.146Z,1035.05
2017-01-07T01:09:03.120Z,1035.07
2017-01-07T01:10:12.103Z,1035.07
2017-01-07T01:11:21.086Z,1035.07
2017-01-07T01:12:30.068Z,1035.09
2017-01-07T01:13:39.049Z,1035.07
2017-01-07T01:14:48.044Z,1035.06
2017-01-07T01:15:57.010Z,1035.05
2017-01-07T01:17:06.004Z,1035.05
2017-01-07T01:18:14.988Z,1035.09
2017-01-07T01:19:23.973Z,1035.04
2017-01-07T01:20:32.942Z,1035.05
2017-01-07T01:21:41.926Z,1034.96
2017-01-07T01:22:51.028Z,1034.93
2017-01-07T01:24:00.003Z,1034.97
2017-01-07T01:25:09.030Z,1034.99
2017-01-07T01:26:17.996Z,1034.99
2017-01-07T01:27:26.974Z,1034.98
2017-01-07T01:28:35.952Z,1034.96
2017-01-07T01:29:44.935Z,1034.9
2017-01-07T01:30:54.007Z,1034.88
2017-01-07T01:32:03.028Z,1034.84
2017-01-07T01:33:11.995Z,1034.8
2017-01-07T01:34:20.972Z,1034.8
2017-01-07T01:35:29.952Z,1034.77
2017-01-07T01:36:38.916Z,1034.84
2017-01-07T01:37:47.884Z,1034.83
2017-01-07T01:38:56.862Z,1034.82
2017-01-07T01:40:05.842Z,1034.79
2017-01-07T01:41:14.879Z,1034.82
2017-01-07T01:42:23.853Z,1034.74
2017-01-07T01:43:32.885Z,1034.73
2017-01-07T01:44:41.864Z,1034.65
2017-01-07T01:45:50.848Z,1034.7
2017-01-07T01:46:59.839Z,1034.63
2017-01-07T01:48:08.811Z,1034.64
2017-01-07T01:49:17.790Z,1034.59
2017-01-07T01:50:26.758Z,1034.58
2017-01-07T01:51:35.745Z,1034.53
2017-01-07T01:52:44.742Z,1034.54
2017-01-07T01:53:53.732Z,1034.5
2017-01-07T01:55:02.719Z,1034.52
2017-01-07T01:56:11.690Z,1034.51
2017-01-07T01:57:20.657Z,1034.51
2017-01-07T01:58:29.634Z,1034.51
2017-01-07T01:59:38.620Z,1034.5
2017-01-07T02:00:47.585Z,1034.47
2017-01-07T02:01:56.562Z,1034.51
2017-01-07T02:03:05.554Z,1034.56
2017-01-07T02:04:14.539Z,1034.54
2017-01-07T02:05:23.501Z,1034.49
2017-01-07T02:06:32.482Z,1034.49
2017-01-07T02:07:41.469Z,1034.44
2017-01-07T02:08:50.445Z,1034.43
2017-01-07T02:09:59.425Z,1034.42
2017-01-07T02:11:08.806Z,1034.4
2017-01-07T02:12:18.209Z,1034.35
2017-01-07T02:13:27.189Z,1034.32
2017-01-07T02:14:36.167Z,1034.32
2017-01-07T02:15:45.135Z,1034.31
2017-01-07T02:16:54.109Z,1034.33
2017-01-07T02:18:03.087Z,1034.31
2017-01-07T02:19:12.072Z,1034.32
2017-01-07T02:20:21.049Z,1034.31
2017-01-07T02:21:30.019Z,1034.34
2017-01-07T02:22:38.991Z,1034.37
2017-01-07T02:23:47.992Z,1034.36
2017-01-07T02:24:56.969Z,1034.36
2017-01-07T02:26:05.951Z,1034.43
2017-01-07T02:27:14.922Z,1034.44
2017-01-07T02:28:23.895Z,1034.41
2017-01-07T02:29:32.872Z,1034.4
2017-01-07T02:30:41.850Z,1034.36
2017-01-07T02:31:50.832Z,1034.35
2017-01-07T02:32:59.812Z,1034.38
2017-01-07T02:34:08.787Z,1034.38
2017-01-07T02:35:17.782Z,1034.36
2017-01-07T02:36:27.071Z,1034.31
2017-01-07T02:37:36.045Z,1034.28
2017-01-07T02:38:45.017Z,1034.29
2017-01-07T02:39:53.986Z,1034.25
2017-01-07T02:41:02.970Z,1034.24
2017-01-07T02:42:11.959Z,1034.23
2017-01-07T02:43:20.928Z,1034.2
2017-01-07T02:44:29.891Z,1034.18
2017-01-07T02:45:38.863Z,1034.21
2017-01-07T02:46:47.828Z,1034.19
2017-01-07T02:47:56.811Z,1034.18
2017-01-07T02:49:05.912Z,1034.17
2017-01-07T02:50:14.875Z,1034.16
2017-01-07T02:51:23.843Z,1034.15
2017-01-07T02:52:32.829Z,1034.16
2017-01-07T02:53:41.811Z,1034.1
2017-01-07T02:54:50.794Z,1034.1
2017-01-07T02:55:59.795Z,1034.11
2017-01-07T02:57:08.768Z,1034.07
2017-01-07T02:58:17.751Z,1034.12
2017-01-07T02:59:26.735Z,1034.1
2017-01-07T03:00:35.703Z,1034.13
2017-01-07T03:01:44.696Z,1034.11
2017-01-07T03:02:53.676Z,1034.12
2017-01-07T03:04:02.660Z,1034.08
2017-01-07T03:05:11.636Z,1034.08
2017-01-07T03:06:20.609Z,1034.08
2017-01-07T03:07:29.605Z,1034.07
2017-01-07T03:08:38.586Z,1034.05
2017-01-07T03:09:47.565Z,1034.05
2017-01-07T03:10:56.551Z,1034.02
2017-01-07T03:12:05.538Z,1034.01
2017-01-07T03:13:14.518Z,1033.99
2017-01-07T03:14:23.508Z,1033.98
2017-01-07T03:15:32.494Z,1033.99
2017-01-07T03:16:41.507Z,1034.01
2017-01-07T03:17:50.493Z,1034.06
2017-01-07T03:18:59.474Z,1034.02
2017-01-07T03:20:08.446Z,1034.05
2017-01-07T03:21:17.415Z,1034.03
2017-01-07T03:22:26.392Z,1034.02
2017-01-07T03:23:35.361Z,1033.95
2017-01-07T03:24:44.344Z,1033.93
2017-01-07T03:25:53.313Z,1033.89
2017-01-07T03:27:02.333Z,1033.91
2017-01-07T03:28:11.334Z,1033.97
2017-01-07T03:29:20.315Z,1033.93
2017-01-07T03:30:29.295Z,1033.91
2017-01-07T03:31:38.268Z,1033.9
2017-01-07T03:32:47.254Z,1033.93
2017-01-07T03:33:56.227Z,1033.88
2017-01-07T03:35:05.207Z,1033.88
2017-01-07T03:36:14.193Z,1033.82
2017-01-07T03:37:23.165Z,1033.8
2017-01-07T03:38:32.141Z,1033.77
2017-01-07T03:39:41.116Z,1033.73
2017-01-07T03:40:50.089Z,1033.78
2017-01-07T03:41:59.056Z,1033.75
2017-01-07T03:43:08.039Z,1033.71
2017-01-07T03:44:17.009Z,1033.7
2017-01-07T03:45:25.991Z,1033.69
2017-01-07T03:46:34.988Z,1033.64
2017-01-07T03:47:43.955Z,1033.66
2017-01-07T03:48:52.927Z,1033.64
2017-01-07T03:50:01.897Z,1033.62
2017-01-07T03:51:10.862Z,1033.6
2017-01-07T03:52:19.870Z,1033.6
2017-01-07T03:53:28.865Z,1033.62
2017-01-07T03:54:37.844Z,1033.58
2017-01-07T03:55:46.811Z,1033.57
2017-01-07T03:56:55.800Z,1033.51
2017-01-07T03:58:04.778Z,1033.53
2017-01-07T03:59:13.768Z,1033.51
2017-01-07T04:00:22.746Z,1033.46
2017-01-07T04:01:31.736Z,1033.46
2017-01-07T04:02:40.711Z,1033.48
2017-01-07T04:03:49.685Z,1033.48
2017-01-07T04:04:58.676Z,1033.47
2017-01-07T04:06:07.645Z,1033.43
2017-01-07T04:07:16.634Z,1033.35
2017-01-07T04:08:25.598Z,1033.27
2017-01-07T04:09:34.573Z,1033.26
2017-01-07T04:10:43.549Z,1033.15
2017-01-07T04:11:52.540Z,1033.15
2017-01-07T04:13:01.538Z,1033.13
2017-01-07T04:14:10.524Z,1033.08
2017-01-07T04:15:19.489Z,1033.04
2017-01-07T04:16:28.452Z,1032.99
2017-01-07T04:17:37.437Z,1032.91
2017-01-07T04:18:46.420Z,1032.85
2017-01-07T04:19:55.398Z,1032.8
2017-01-07T04:21:04.376Z,1032.77
2017-01-07T04:22:13.349Z,1032.79
2017-01-07T04:23:22.327Z,1032.77
2017-01-07T04:24:31.321Z,1032.77
2017-01-07T04:25:40.304Z,1032.7
2017-01-07T04:26:49.275Z,1032.61
2017-01-07T04:27:58.257Z,1032.58
2017-01-07T04:29:07.222Z,1032.54
2017-01-07T04:30:16.201Z,1032.44
2017-01-07T04:31:25.184Z,1032.4
2017-01-07T04:32:34.156Z,1032.41
2017-01-07T04:33:43.137Z,1032.44
2017-01-07T04:34:52.100Z,1032.45
2017-01-07T04:36:01.079Z,1032.41
2017-01-07T04:37:10.057Z,1032.37
2017-01-07T04:38:19.025Z,1032.34
2017-01-07T04:39:28.008Z,1032.35
2017-01-07T04:40:36.992Z,1032.37
2017-01-07T04:41:46.019Z,1032.34
2017-01-07T04:42:54.999Z,1032.37
2017-01-07T04:44:03.968Z,1032.35
2017-01-07T04:45:12.946Z,1032.32
2017-01-07T04:46:21.930Z,1032.34
2017-01-07T04:47:30.912Z,1032.41
2017-01-07T04:48:39.894Z,1032.41
2017-01-07T04:49:48.906Z,1032.48
2017-01-07T04:50:57.875Z,1032.4
2017-01-07T04:52:06.860Z,1032.35
2017-01-07T04:53:15.834Z,1032.36
2017-01-07T04:54:24.819Z,1032.26
2017-01-07T04:55:34.191Z,1032.23
2017-01-07T04:56:43.167Z,1032.16
2017-01-07T04:57:52.130Z,1032.22
2017-01-07T04:59:01.118Z,1032.26
2017-01-07T05:00:10.370Z,1032.28
2017-01-07T05:01:19.328Z,1032.22
2017-01-07T05:02:28.311Z,1032.18
2017-01-07T05:03:37.290Z,1032.19
2017-01-07T05:04:46.266Z,1032.13
2017-01-07T05:05:55.238Z,1032.07
2017-01-07T05:07:04.203Z,1032.1
2017-01-07T05:08:13.183Z,1032.13
2017-01-07T05:09:22.181Z,1032.09
2017-01-07T05:10:31.151Z,1032.05
2017-01-07T05:11:40.132Z,1032.03
2017-01-07T05:12:49.105Z,1032
2017-01-07T05:13:58.072Z,1032.03
2017-01-07T05:15:07.052Z,1032
2017-01-07T05:16:16.038Z,1032.03
2017-01-07T05:17:25.002Z,1032.02
2017-01-07T05:18:33.970Z,1032
2017-01-07T05:19:42.950Z,1031.98
2017-01-07T05:20:51.931Z,1031.96
2017-01-07T05:22:00.920Z,1031.95
2017-01-07T05:23:09.890Z,1031.98
2017-01-07T05:24:18.869Z,1032.01
2017-01-07T05:25:27.835Z,1031.94
2017-01-07T05:26:36.822Z,1031.9
2017-01-07T05:27:45.798Z,1031.86
2017-01-07T05:28:54.773Z,1031.82
2017-01-07T05:30:03.761Z,1031.8
2017-01-07T05:31:13.151Z,1031.78
2017-01-07T05:32:22.125Z,1031.75
2017-01-07T05:33:31.114Z,1031.62
2017-01-07T05:34:40.082Z,1031.61
2017-01-07T05:35:49.062Z,1031.6
2017-01-07T05:36:58.031Z,1031.58
2017-01-07T05:38:07.016Z,1031.56
2017-01-07T05:39:15.980Z,1031.58
2017-01-07T05:40:24.967Z,1031.56
2017-01-07T05:41:33.929Z,1031.53
2017-01-07T05:42:42.908Z,1031.45
2017-01-07T05:43:51.909Z,1031.49
2017-01-07T05:45:00.906Z,1031.45
2017-01-07T05:46:09.883Z,1031.44
2017-01-07T05:47:18.853Z,1031.45
2017-01-07T05:48:27.850Z,1031.47
2017-01-07T05:49:36.822Z,1031.52
2017-01-07T05:50:45.814Z,1031.5
2017-01-07T05:51:54.815Z,1031.46
2017-01-07T05:53:03.789Z,1031.46
2017-01-07T05:54:12.776Z,1031.43
2017-01-07T05:55:21.749Z,1031.41
2017-01-07T05:56:30.773Z,1031.35
2017-01-07T05:57:39.752Z,1031.34
2017-01-07T05:58:48.730Z,1031.38
2017-01-07T05:59:57.707Z,1031.37
2017-01-07T06:01:06.693Z,1031.43
2017-01-07T06:02:15.681Z,1031.37
2017-01-07T06:03:24.656Z,1031.38
2017-01-07T06:04:33.632Z,1031.36
2017-01-07T06:05:42.619Z,1031.37
2017-01-07T06:06:51.591Z,1031.32
2017-01-07T06:08:00.571Z,1031.21
2017-01-07T06:09:09.548Z,1031.18
2017-01-07T06:10:18.530Z,1031.21
2017-01-07T06:11:27.499Z,1031.26
2017-01-07T06:12:36.477Z,1031.23
2017-01-07T06:13:45.875Z,1031.28
2017-01-07T06:14:54.851Z,1031.25
2017-01-07T06:16:03.832Z,1031.28
2017-01-07T06:17:12.811Z,1031.27
2017-01-07T06:18:21.782Z,1031.21
2017-01-07T06:19:30.755Z,1031.09
2017-01-07T06:20:39.718Z,1031.03
2017-01-07T06:21:48.706Z,1030.99
2017-01-07T06:22:57.695Z,1031.06
2017-01-07T06:24:06.667Z,1031.03
2017-01-07T06:25:15.638Z,1031.04
2017-01-07T06:26:24.620Z,1031.09
2017-01-07T06:27:33.597Z,1031.13
2017-01-07T06:28:42.576Z,1031.14
2017-01-07T06:29:51.562Z,1031.14
2017-01-07T06:31:00.550Z,1031.13
2017-01-07T06:32:09.512Z,1031.14
2017-01-07T06:33:18.502Z,1031.19
2017-01-07T06:34:27.462Z,1031.11
2017-01-07T06:35:36.448Z,1031.11
2017-01-07T06:36:45.434Z,1031.16
2017-01-07T06:37:54.412Z,1031.17
2017-01-07T06:39:03.376Z,1031.21
2017-01-07T06:40:12.354Z,1031.16
2017-01-07T06:41:21.318Z,1031.16
2017-01-07T06:42:30.296Z,1031.09
2017-01-07T06:43:39.290Z,1031.08
2017-01-07T06:44:48.257Z,1031.01
2017-01-07T06:45:57.237Z,1031
2017-01-07T06:47:06.221Z,1030.94
2017-01-07T06:48:15.205Z,1030.95
2017-01-07T06:49:24.188Z,1031
2017-01-07T06:50:33.160Z,1031.06
2017-01-07T06:51:42.139Z,1031.12
2017-01-07T06:52:51.106Z,1031.14
2017-01-07T06:54:00.082Z,1031.11
2017-01-07T06:55:09.063Z,1031.11
2017-01-07T06:56:18.043Z,1031.11
2017-01-07T06:57:27.018Z,1031.12
2017-01-07T06:58:35.984Z,1031.1
2017-01-07T06:59:44.961Z,1031.08
2017-01-07T07:00:53.944Z,1031.1
2017-01-07T07:02:02.924Z,1031.14
2017-01-07T07:03:11.898Z,1031.03
2017-01-07T07:04:20.868Z,1031.04
2017-01-07T07:05:29.844Z,1030.97
2017-01-07T07:06:38.816Z,1030.95
2017-01-07T07:07:47.794Z,1030.9
2017-01-07T07:08:56.774Z,1030.91
2017-01-07T07:10:05.754Z,1030.89
2017-01-07T07:11:14.726Z,1030.88
2017-01-07T07:12:23.706Z,1030.82
2017-01-07T07:13:32.696Z,1030.76
2017-01-07T07:14:41.669Z,1030.79
2017-01-07T07:15:50.638Z,1030.74
2017-01-07T07:16:59.619Z,1030.73
2017-01-07T07:18:08.590Z,1030.77
2017-01-07T07:19:17.559Z,1030.82
2017-01-07T07:20:26.531Z,1030.82
2017-01-07T07:21:35.516Z,1030.84
2017-01-07T07:22:44.480Z,1030.78
2017-01-07T07:23:53.464Z,1030.74
2017-01-07T07:25:02.432Z,1030.69
2017-01-07T07:26:11.423Z,1030.65
2017-01-07T07:27:20.410Z,1030.61
2017-01-07T07:28:29.376Z,1030.59
2017-01-07T07:29:38.344Z,1030.53
2017-01-07T07:30:47.319Z,1030.48
2017-01-07T07:31:56.287Z,1030.41
2017-01-07T07:33:05.274Z,1030.43
2017-01-07T07:34:14.254Z,1030.35
2017-01-07T07:35:23.262Z,1030.38
2017-01-07T07:36:32.229Z,1030.37
2017-01-07T07:37:41.635Z,1030.38
2017-01-07T07:38:50.623Z,1030.45
2017-01-07T07:39:59.597Z,1030.46
2017-01-07T07:41:08.575Z,1030.44
2017-01-07T07:42:17.539Z,1030.43
2017-01-07T07:43:26.518Z,1030.44
2017-01-07T07:44:35.507Z,1030.44
2017-01-07T07:45:44.485Z,1030.49
2017-01-07T07:46:53.452Z,1030.42
2017-01-07T07:48:02.434Z,1030.49
2017-01-07T07:49:11.475Z,1030.5
2017-01-07T07:50:20.488Z,1030.56
2017-01-07T07:51:29.475Z,1030.51
2017-01-07T07:52:38.453Z,1030.48
2017-01-07T07:53:47.421Z,1030.47
2017-01-07T07:54:56.400Z,1030.44
2017-01-07T07:56:05.379Z,1030.45
2017-01-07T07:57:14.387Z,1030.47
2017-01-07T07:58:23.359Z,1030.43
2017-01-07T07:59:32.353Z,1030.4
2017-01-07T08:00:41.317Z,1030.37
2017-01-07T08:01:50.306Z,1030.38
2017-01-07T08:02:59.284Z,1030.33
2017-01-07T08:04:08.263Z,1030.3
2017-01-07T08:05:17.245Z,1030.26
2017-01-07T08:06:26.220Z,1030.24
2017-01-07T08:07:35.190Z,1030.23
2017-01-07T08:08:44.180Z,1030.2
2017-01-07T08:09:53.151Z,1030.16
2017-01-07T08:11:02.134Z,1030.15
2017-01-07T08:12:11.112Z,1030.13
2017-01-07T08:13:20.092Z,1030.12
2017-01-07T08:14:29.068Z,1030.1
2017-01-07T08:15:38.036Z,1030.16
2017-01-07T08:16:47.030Z,1030.15
2017-01-07T08:17:55.992Z,1030.13
2017-01-07T08:19:04.994Z,1030.13
2017-01-07T08:20:13.969Z,1030.14
2017-01-07T08:21:22.950Z,1030.09
2017-01-07T08:22:31.926Z,1030.09
2017-01-07T08:23:40.903Z,1030.1
2017-01-07T08:24:49.872Z,1030.09
2017-01-07T08:25:58.853Z,1030.08
2017-01-07T08:27:07.851Z,1030.1
2017-01-07T08:28:16.830Z,1030.05
2017-01-07T08:29:25.805Z,1030.04
2017-01-07T08:30:34.781Z,1030.02
2017-01-07T08:31:43.753Z,1029.98
2017-01-07T08:32:52.739Z,1029.96
2017-01-07T08:34:01.724Z,1030
2017-01-07T08:35:10.701Z,1030.02
2017-01-07T08:36:19.668Z,1029.96
2017-01-07T08:37:28.661Z,1029.97
2017-01-07T08:38:37.638Z,1029.88
2017-01-07T08:39:46.617Z,1029.85
2017-01-07T08:40:55.607Z,1029.82
2017-01-07T08:42:04.571Z,1029.8
2017-01-07T08:43:13.551Z,1029.76
2017-01-07T08:44:22.534Z,1029.76
2017-01-07T08:45:31.508Z,1029.73
2017-01-07T08:46:40.506Z,1029.73
2017-01-07T08:47:49.478Z,1029.75
2017-01-07T08:48:58.447Z,1029.77
2017-01-07T08:50:07.416Z,1029.74
2017-01-07T08:51:16.402Z,1029.73
2017-01-07T08:52:25.385Z,1029.68
2017-01-07T08:53:34.355Z,1029.71
2017-01-07T08:54:43.326Z,1029.73
2017-01-07T08:55:52.314Z,1029.73
2017-01-07T08:57:01.307Z,1029.75
2017-01-07T08:58:10.273Z,1029.74
2017-01-07T08:59:19.244Z,1029.74
2017-01-07T09:00:28.228Z,1029.79
2017-01-07T09:01:37.204Z,1029.79
2017-01-07T09:02:46.192Z,1029.81
2017-01-07T09:03:55.162Z,1029.82
2017-01-07T09:05:04.127Z,1029.83
2017-01-07T09:06:13.098Z,1029.87
2017-01-07T09:07:22.106Z,1029.84
2017-01-07T09:08:31.069Z,1029.85
2017-01-07T09:09:40.057Z,1029.85
2017-01-07T09:10:49.032Z,1029.83
2017-01-07T09:11:58.000Z,1029.78
2017-01-07T09:13:07.046Z,1029.8
2017-01-07T09:14:16.023Z,1029.84
2017-01-07T09:15:25.001Z,1029.78
2017-01-07T09:16:33.973Z,1029.76
2017-01-07T09:17:42.948Z,1029.75
2017-01-07T09:18:51.930Z,1029.77
2017-01-07T09:20:00.904Z,1029.77
2017-01-07T09:21:10.325Z,1029.8
2017-01-07T09:22:20.848Z,1029.79
2017-01-07T09:23:32.437Z,1029.73
2017-01-07T09:24:41.422Z,1029.72
2017-01-07T09:25:50.409Z,1029.69
2017-01-07T09:26:59.389Z,1029.77
2017-01-07T09:28:08.364Z,1029.74
2017-01-07T09:29:17.344Z,1029.71
2017-01-07T09:30:26.322Z,1029.7
2017-01-07T09:31:35.305Z,1029.68
2017-01-07T09:32:44.283Z,1029.67
2017-01-07T09:33:53.267Z,1029.68
2017-01-07T09:35:02.245Z,1029.65
2017-01-07T09:36:11.229Z,1029.59
2017-01-07T09:37:20.198Z,1029.56
2017-01-07T09:38:29.171Z,1029.56
2017-01-07T09:39:38.155Z,1029.51
2017-01-07T09:40:47.134Z,1029.47
2017-01-07T09:41:56.097Z,1029.42
2017-01-07T09:43:05.113Z,1029.39
2017-01-07T09:44:14.084Z,1029.34
2017-01-07T09:45:23.076Z,1029.34
2017-01-07T09:46:32.043Z,1029.33
2017-01-07T09:47:41.015Z,1029.38
2017-01-07T09:48:50.415Z,1029.34
2017-01-07T09:49:59.387Z,1029.31
2017-01-07T09:51:08.374Z,1029.29
2017-01-07T09:52:17.348Z,1029.24
2017-01-07T09:53:26.320Z,1029.23
2017-01-07T09:54:35.281Z,1029.24
2017-01-07T09:55:44.268Z,1029.2
2017-01-07T09:56:53.256Z,1029.11
2017-01-07T09:58:02.239Z,1029.02
2017-01-07T09:59:11.229Z,1029.02
2017-01-07T10:00:20.293Z,1028.98
2017-01-07T10:01:29.265Z,1028.94
2017-01-07T10:02:38.256Z,1028.91
2017-01-07T10:03:47.235Z,1028.92
2017-01-07T10:04:56.205Z,1028.86
2017-01-07T10:06:05.197Z,1028.93
2017-01-07T10:07:14.274Z,1028.89
2017-01-07T10:08:23.259Z,1028.87
2017-01-07T10:09:32.237Z,1028.88
2017-01-07T10:10:41.229Z,1028.86
2017-01-07T10:11:50.200Z,1028.9
2017-01-07T10:12:59.170Z,1028.86
2017-01-07T10:14:08.971Z,1028.9
2017-01-07T10:15:17.954Z,1028.83
2017-01-07T10:16:26.941Z,1028.82
2017-01-07T10:17:35.932Z,1028.83
2017-01-07T10:18:44.917Z,1028.76
2017-01-07T10:19:53.892Z,1028.81
2017-01-07T10:21:02.972Z,1028.78
2017-01-07T10:22:11.953Z,1028.7
2017-01-07T10:23:20.937Z,1028.66
2017-01-07T10:24:29.920Z,1028.63
2017-01-07T10:25:38.913Z,1028.6
2017-01-07T10:26:47.893Z,1028.55
2017-01-07T10:27:56.874Z,1028.57
2017-01-07T10:29:05.880Z,1028.57
2017-01-07T10:30:14.896Z,1028.61
2017-01-07T10:31:23.872Z,1028.57
2017-01-07T10:32:32.848Z,1028.5
2017-01-07T10:33:41.820Z,1028.41
2017-01-07T10:34:50.809Z,1028.34
2017-01-07T10:35:59.789Z,1028.32
2017-01-07T10:37:08.768Z,1028.31
2017-01-07T10:38:17.753Z,1028.34
2017-01-07T10:39:26.759Z,1028.33
2017-01-07T10:40:35.748Z,1028.35
2017-01-07T10:41:44.728Z,1028.28
2017-01-07T10:42:53.709Z,1028.28
2017-01-07T10:44:02.686Z,1028.26
2017-01-07T10:45:11.672Z,1028.26
2017-01-07T10:46:20.661Z,1028.21
2017-01-07T10:47:29.645Z,1028.24
2017-01-07T10:48:38.638Z,1028.25
2017-01-07T10:49:47.617Z,1028.19
2017-01-07T10:50:56.593Z,1028.18
2017-01-07T10:52:05.580Z,1028.14
2017-01-07T10:53:14.586Z,1028.11
2017-01-07T10:54:23.580Z,1028.07
2017-01-07T10:55:32.551Z,1028.05
2017-01-07T10:56:41.536Z,1028.03
2017-01-07T10:57:50.530Z,1028.03
2017-01-07T10:58:59.507Z,1028.04
2017-01-07T11:00:08.689Z,1027.98
2017-01-07T11:01:17.679Z,1028.01
2017-01-07T11:02:26.675Z,1027.98
2017-01-07T11:03:35.638Z,1027.95
2017-01-07T11:04:44.620Z,1027.92
2017-01-07T11:05:53.589Z,1027.91
2017-01-07T11:07:02.587Z,1027.86
2017-01-07T11:08:11.573Z,1027.9
2017-01-07T11:09:20.552Z,1027.89
2017-01-07T11:10:29.556Z,1027.83
2017-01-07T11:11:38.535Z,1027.82
2017-01-07T11:12:47.522Z,1027.79
2017-01-07T11:13:56.498Z,1027.76
2017-01-07T11:15:05.486Z,1027.76
2017-01-07T11:16:14.465Z,1027.71
2017-01-07T11:17:23.441Z,1027.72
2017-01-07T11:18:32.434Z,1027.69
2017-01-07T11:19:41.428Z,1027.68
2017-01-07T11:20:50.407Z,1027.7
2017-01-07T11:21:59.403Z,1027.73
2017-01-07T11:23:08.374Z,1027.69
2017-01-07T11:24:17.349Z,1027.68
2017-01-07T11:25:26.348Z,1027.73
2017-01-07T11:26:35.334Z,1027.68
2017-01-07T11:27:44.306Z,1027.66
2017-01-07T11:28:53.299Z,1027.61
2017-01-07T11:30:02.309Z,1027.62
2017-01-07T11:31:11.288Z,1027.57
2017-01-07T11:32:20.300Z,1027.56
2017-01-07T11:33:29.276Z,1027.52
2017-01-07T11:34:38.269Z,1027.55
2017-01-07T11:35:47.249Z,1027.47
2017-01-07T11:36:56.230Z,1027.48
2017-01-07T11:38:05.234Z,1027.39
2017-01-07T11:39:14.219Z,1027.39
2017-01-07T11:40:23.191Z,1027.32
2017-01-07T11:41:32.168Z,1027.23
2017-01-07T11:42:41.141Z,1027.2
2017-01-07T11:43:50.143Z,1027.17
2017-01-07T11:44:59.149Z,1027.12
2017-01-07T11:46:08.139Z,1027.1
2017-01-07T11:47:17.110Z,1027.09
2017-01-07T11:48:26.097Z,1027.05
2017-01-07T11:49:35.074Z,1026.98
2017-01-07T11:50:44.066Z,1026.95
2017-01-07T11:51:53.041Z,1026.95
2017-01-07T11:53:02.028Z,1026.92
2017-01-07T11:54:11.008Z,1026.91
2017-01-07T11:55:20.009Z,1026.92
2017-01-07T11:56:28.987Z,1026.92
2017-01-07T11:57:38.000Z,1026.87
2017-01-07T11:58:46.975Z,1026.89
2017-01-07T11:59:55.952Z,1026.82
2017-01-07T12:01:05.079Z,1026.81
2017-01-07T12:02:14.068Z,1026.77
2017-01-07T12:03:23.041Z,1026.68
2017-01-07T12:04:32.028Z,1026.75
2017-01-07T12:05:41.000Z,1026.73
2017-01-07T12:06:49.996Z,1026.69
2017-01-07T12:07:58.986Z,1026.68
2017-01-07T12:09:08.086Z,1026.69
2017-01-07T12:10:17.094Z,1026.67
2017-01-07T12:11:26.082Z,1026.6
2017-01-07T12:12:35.162Z,1026.6
2017-01-07T12:13:44.137Z,1026.57
2017-01-07T12:14:53.128Z,1026.53
2017-01-07T12:16:02.109Z,1026.48
2017-01-07T12:17:11.080Z,1026.51
2017-01-07T12:18:20.068Z,1026.49
2017-01-07T12:19:29.057Z,1026.51
2017-01-07T12:20:38.094Z,1026.44
2017-01-07T12:21:47.087Z,1026.42
2017-01-07T12:22:56.057Z,1026.42
2017-01-07T12:24:05.029Z,1026.42
2017-01-07T12:25:14.046Z,1026.36
2017-01-07T12:26:23.017Z,1026.32
2017-01-07T12:27:31.995Z,1026.27
2017-01-07T12:28:40.979Z,1026.24
2017-01-07T12:29:50.071Z,1026.3
2017-01-07T12:30:59.051Z,1026.25
2017-01-07T12:32:08.055Z,1026.24
2017-01-07T12:33:17.039Z,1026.25
2017-01-07T12:34:26.021Z,1026.22
2017-01-07T12:35:35.000Z,1026.23
2017-01-07T12:36:43.981Z,1026.2
2017-01-07T12:37:52.961Z,1026.19
2017-01-07T12:39:01.936Z,1026.1
2017-01-07T12:40:10.909Z,1026.17
2017-01-07T12:41:19.897Z,1026.15
2017-01-07T12:42:28.898Z,1026.16
2017-01-07T12:43:37.872Z,1026.1
2017-01-07T12:44:46.875Z,1026.12
2017-01-07T12:45:55.873Z,1026.09
2017-01-07T12:47:04.848Z,1026.08
2017-01-07T12:48:13.827Z,1026.11
2017-01-07T12:49:22.804Z,1026.07
2017-01-07T12:50:31.891Z,1026
2017-01-07T12:51:40.872Z,1025.98
2017-01-07T12:52:49.842Z,1025.98
2017-01-07T12:53:59.125Z,1025.96
2017-01-07T12:55:08.302Z,1025.89
2017-01-07T12:56:17.282Z,1025.91
2017-01-07T12:57:26.265Z,1025.83
2017-01-07T12:58:35.253Z,1025.84
2017-01-07T12:59:44.233Z,1025.83
2017-01-07T13:00:53.220Z,1025.77
2017-01-07T13:02:02.188Z,1025.73
2017-01-07T13:03:11.172Z,1025.65
2017-01-07T13:04:20.132Z,1025.67
2017-01-07T13:05:29.118Z,1025.64
2017-01-07T13:06:38.112Z,1025.64
2017-01-07T13:07:47.246Z,1025.62
2017-01-07T13:08:56.276Z,1025.6
2017-01-07T13:10:05.271Z,1025.63
2017-01-07T13:11:14.250Z,1025.59
2017-01-07T13:12:23.227Z,1025.57
2017-01-07T13:13:32.212Z,1025.5
2017-01-07T13:14:41.205Z,1025.55
2017-01-07T13:15:50.330Z,1025.56
2017-01-07T13:16:59.757Z,1025.51
2017-01-07T13:18:08.762Z,1025.47
2017-01-07T13:19:17.751Z,1025.52
2017-01-07T13:20:26.741Z,1025.48
2017-01-07T13:21:35.724Z,1025.4
2017-01-07T13:22:44.700Z,1025.4
2017-01-07T13:23:53.669Z,1025.38
2017-01-07T13:25:02.673Z,1025.3
2017-01-07T13:26:11.655Z,1025.25
2017-01-07T13:27:20.662Z,1025.29
2017-01-07T13:28:29.645Z,1025.29
2017-01-07T13:29:38.621Z,1025.32
2017-01-07T13:30:47.590Z,1025.28
2017-01-07T13:31:56.571Z,1025.27
2017-01-07T13:33:05.541Z,1025.24
2017-01-07T13:34:14.529Z,1025.21
2017-01-07T13:35:23.520Z,1025.21
2017-01-07T13:36:32.490Z,1025.23
2017-01-07T13:37:41.465Z,1025.16
2017-01-07T13:38:50.453Z,1025.27
2017-01-07T13:39:59.430Z,1025.14
2017-01-07T13:41:08.417Z,1025.15
2017-01-07T13:42:17.401Z,1025.18
2017-01-07T13:43:26.384Z,1025.13
2017-01-07T13:44:35.362Z,1025.1
2017-01-07T13:45:44.355Z,1025.11
2017-01-07T13:46:53.331Z,1025.09
2017-01-07T13:48:02.360Z,1025.13
2017-01-07T13:49:11.333Z,1025.18
2017-01-07T13:50:20.312Z,1025.18
2017-01-07T13:51:30.935Z,1025.17
2017-01-07T13:52:40.007Z,1025.12
2017-01-07T13:53:49.023Z,1025.12
2017-01-07T13:54:58.002Z,1025.07
2017-01-07T13:56:08.509Z,1025.05
2017-01-07T13:57:19.345Z,1025.05